Time;durP1;ratioP1;P1;durP2;ratioP2;P2;SDS_P1;SDS_P2;PMS_P1;PMS_P2;Temp;Humidity;BMP_temperature;BMP_pressure;BME280_temperature;BME280_humidity;BME280_pressure;Samples;Min_cycle;Max_cycle;Signal;HPM_P1;HPM_P2
2022/06/07 00:02:08;;;;;;;8.77;5.78;;;16.00;78.80;;;;;;5045440;28;20029;-67
2022/06/07 00:04:35;;;;;;;9.70;6.47;;;16.00;78.70;;;;;;5051296;28;20033;-67
2022/06/07 00:07:02;;;;;;;9.48;6.15;;;16.00;78.70;;;;;;5048184;28;20025;-67
2022/06/07 00:09:29;;;;;;;11.18;7.43;;;16.00;78.70;;;;;;5029487;28;20044;-67
2022/06/07 00:11:55;;;;;;;11.18;6.78;;;16.00;78.80;;;;;;5042435;28;20530;-67
2022/06/07 00:14:21;;;;;;;11.82;8.23;;;16.00;78.80;;;;;;5039401;28;20029;-67
2022/06/07 00:16:47;;;;;;;10.43;7.28;;;16.00;78.90;;;;;;5048437;28;20477;-67
2022/06/07 00:19:13;;;;;;;10.88;8.00;;;16.00;79.00;;;;;;5053878;28;20033;-67
2022/06/07 00:21:38;;;;;;;11.68;8.27;;;16.00;79.80;;;;;;5039725;28;20020;-68
2022/06/07 00:24:05;;;;;;;12.57;9.05;;;16.00;79.20;;;;;;5036658;28;20535;-67
2022/06/07 00:26:32;;;;;;;11.73;9.00;;;16.00;79.20;;;;;;5032798;28;20111;-67
2022/06/07 00:28:59;;;;;;;12.90;9.73;;;16.00;79.30;;;;;;5054857;28;20029;-67
2022/06/07 00:31:26;;;;;;;13.18;9.27;;;16.00;79.40;;;;;;5031551;28;20025;-67
2022/06/07 00:33:51;;;;;;;13.80;10.80;;;16.10;79.50;;;;;;5050999;28;21516;-67
2022/06/07 00:36:17;;;;;;;14.60;10.50;;;16.10;79.50;;;;;;5043210;28;20056;-67
2022/06/07 00:38:43;;;;;;;13.35;10.45;;;16.00;79.50;;;;;;5056687;28;20056;-67
2022/06/07 00:41:10;;;;;;;13.93;10.88;;;16.00;79.50;;;;;;5045316;28;20115;-67
2022/06/07 00:43:36;;;;;;;14.43;10.63;;;16.10;79.60;;;;;;5057236;28;20051;-67
2022/06/07 00:46:06;;;;;;;15.48;11.75;;;16.10;79.70;;;;;;5049485;28;20021;-67
2022/06/07 00:48:32;;;;;;;16.33;11.75;;;16.10;79.70;;;;;;5049021;28;20041;-67
2022/06/07 00:51:11;;;;;;;15.15;11.65;;;16.00;79.70;;;;;;5042934;28;20029;-67
2022/06/07 00:53:37;;;;;;;16.60;12.57;;;16.10;79.80;;;;;;5040476;28;20107;-68
2022/06/07 00:56:18;;;;;;;15.35;11.73;;;16.10;79.70;;;;;;5051395;28;20021;-68
2022/06/07 00:58:44;;;;;;;15.75;11.18;;;16.10;79.70;;;;;;5056983;28;20335;-68
2022/06/07 01:01:10;;;;;;;18.75;12.38;;;16.10;79.70;;;;;;5050440;28;20032;-68
2022/06/07 01:03:39;;;;;;;15.77;11.98;;;16.10;79.70;;;;;;5056936;28;20090;-68
2022/06/07 01:11:38;;;;;;;16.70;12.73;;;16.10;79.90;;;;;;5050151;28;20041;-68
2022/06/07 01:14:04;;;;;;;18.38;12.95;;;16.10;79.90;;;;;;5043028;28;20061;-67
2022/06/07 01:16:31;;;;;;;19.60;13.20;;;16.10;79.90;;;;;;5043742;28;20413;-68
2022/06/07 01:18:58;;;;;;;17.02;13.52;;;16.10;79.90;;;;;;5049716;28;20052;-68
2022/06/07 01:21:36;;;;;;;18.73;13.02;;;16.10;80.00;;;;;;5050479;28;20025;-67
2022/06/07 01:24:05;;;;;;;17.45;13.70;;;16.10;80.00;;;;;;5056978;28;20121;-68
2022/06/07 01:26:50;;;;;;;16.30;12.60;;;16.10;80.00;;;;;;5046042;28;20095;-67
2022/06/07 01:29:17;;;;;;;17.95;14.07;;;16.10;80.00;;;;;;5051327;28;20036;-67
2022/06/07 01:31:43;;;;;;;19.63;13.55;;;16.10;80.00;;;;;;5050136;28;20057;-67
2022/06/07 01:34:12;;;;;;;16.10;13.13;;;16.20;80.10;;;;;;5056252;28;20369;-67
2022/06/07 01:36:37;;;;;;;18.98;13.95;;;16.10;80.00;;;;;;5046643;28;20035;-68
2022/06/07 01:41:54;;;;;;;18.30;11.90;;;16.20;80.10;;;;;;5047928;28;20026;-68
2022/06/07 01:44:42;;;;;;;18.88;13.05;;;16.20;80.10;;;;;;5047051;28;20025;-68
2022/06/07 01:47:11;;;;;;;18.13;13.25;;;16.10;80.10;;;;;;5049155;28;20407;-67
2022/06/07 01:49:43;;;;;;;20.55;13.40;;;16.20;80.10;;;;;;5055801;28;20032;-68
2022/06/07 01:52:10;;;;;;;18.55;13.40;;;16.20;80.20;;;;;;5050475;28;20349;-68
2022/06/07 01:54:40;;;;;;;20.80;14.75;;;16.20;80.50;;;;;;5040271;28;20346;-68
2022/06/07 01:57:07;;;;;;;21.15;13.77;;;16.20;80.20;;;;;;5026886;28;20053;-68
2022/06/07 01:59:33;;;;;;;20.35;14.48;;;16.20;80.20;;;;;;5055826;28;20032;-68
2022/06/07 02:01:59;;;;;;;19.17;14.27;;;16.20;80.30;;;;;;5046704;28;20079;-68
2022/06/07 02:04:25;;;;;;;20.48;14.70;;;16.20;80.40;;;;;;5051477;28;20072;-68
2022/06/07 02:06:51;;;;;;;20.30;14.95;;;16.20;80.40;;;;;;5044624;28;20057;-68
2022/06/07 02:09:24;;;;;;;23.23;15.27;;;16.20;80.50;;;;;;5055466;28;20519;-68
2022/06/07 02:11:50;;;;;;;20.88;15.75;;;16.20;80.50;;;;;;5048742;28;20041;-68
2022/06/07 02:14:16;;;;;;;21.63;16.38;;;16.20;80.40;;;;;;5035516;28;20033;-69
2022/06/07 02:16:42;;;;;;;19.25;15.70;;;16.20;80.50;;;;;;5035302;28;20026;-68
2022/06/07 02:19:07;;;;;;;22.70;16.30;;;16.20;80.60;;;;;;5022421;28;20029;-68
2022/06/07 02:21:37;;;;;;;21.42;16.08;;;16.20;80.60;;;;;;5037648;28;20474;-68
2022/06/07 02:24:05;;;;;;;22.83;16.85;;;16.20;80.70;;;;;;5037315;28;20382;-68
2022/06/07 02:26:41;;;;;;;20.83;15.50;;;16.20;80.70;;;;;;5041669;28;20032;-68
2022/06/07 02:29:13;;;;;;;22.60;18.35;;;16.20;80.80;;;;;;5050872;28;20040;-68
2022/06/07 02:31:43;;;;;;;21.55;16.02;;;16.20;80.80;;;;;;5046355;28;20052;-68
2022/06/07 02:34:11;;;;;;;20.92;16.80;;;16.10;80.80;;;;;;5050065;28;20033;-68
2022/06/07 02:36:37;;;;;;;24.08;16.63;;;16.10;80.80;;;;;;5047800;28;20036;-69
2022/06/07 02:39:04;;;;;;;23.98;16.95;;;16.10;80.90;;;;;;5049596;28;20025;-68
2022/06/07 02:41:33;;;;;;;23.25;17.15;;;16.10;80.90;;;;;;5052285;28;20533;-67
2022/06/07 02:43:58;;;;;;;22.10;16.88;;;16.10;80.90;;;;;;5040925;28;20025;-67
2022/06/07 02:46:24;;;;;;;24.65;16.48;;;16.10;80.90;;;;;;5046246;28;20034;-67
2022/06/07 02:48:50;;;;;;;21.83;16.58;;;16.10;80.90;;;;;;5036324;28;20030;-68
2022/06/07 02:51:16;;;;;;;21.55;17.02;;;16.10;80.90;;;;;;5046238;28;20068;-68
2022/06/07 02:53:42;;;;;;;22.27;17.20;;;16.10;80.90;;;;;;5046001;28;20446;-68
2022/06/07 02:56:08;;;;;;;23.25;17.42;;;16.10;80.80;;;;;;5048606;28;20032;-68
2022/06/07 02:58:33;;;;;;;23.20;16.42;;;16.10;80.80;;;;;;5044450;28;20024;-68
2022/06/07 03:01:02;;;;;;;19.48;16.15;;;16.10;80.90;;;;;;5047775;28;20025;-68
2022/06/07 03:03:35;;;;;;;22.90;15.98;;;16.10;81.60;;;;;;5026923;28;20036;-68
2022/06/07 03:06:01;;;;;;;22.65;16.17;;;16.10;80.90;;;;;;5025729;28;20028;-67
2022/06/07 03:08:27;;;;;;;21.83;16.70;;;16.10;80.80;;;;;;5038360;28;20026;-68
2022/06/07 03:10:59;;;;;;;24.27;16.77;;;16.10;80.80;;;;;;5034038;28;20034;-68
2022/06/07 03:13:26;;;;;;;22.25;16.27;;;16.10;80.90;;;;;;5036627;28;20074;-67
2022/06/07 03:15:54;;;;;;;22.90;16.42;;;16.00;80.90;;;;;;5033947;28;20025;-68
2022/06/07 03:18:21;;;;;;;22.38;17.33;;;16.00;81.00;;;;;;5038841;28;20086;-68
2022/06/07 03:20:48;;;;;;;19.92;16.40;;;16.00;81.00;;;;;;5043937;28;20030;-68
2022/06/07 03:23:15;;;;;;;24.33;16.58;;;16.00;80.90;;;;;;5040682;28;20013;-67
2022/06/07 03:25:46;;;;;;;;;;;16.00;80.90;;;;;;5040161;28;20033;-68
2022/06/07 03:28:11;;;;;;;19.38;14.77;;;16.00;80.90;;;;;;5035866;28;20100;-68
2022/06/07 03:30:39;;;;;;;21.23;16.27;;;16.00;80.90;;;;;;5048049;28;20454;-68
2022/06/07 03:33:06;;;;;;;22.88;17.15;;;16.00;80.90;;;;;;5045428;28;20025;-68
2022/06/07 03:35:33;;;;;;;24.40;17.52;;;16.00;80.90;;;;;;5050312;28;20035;-68
2022/06/07 03:38:01;;;;;;;24.30;18.25;;;16.00;80.90;;;;;;5026939;28;20025;-68
2022/06/07 03:40:43;;;;;;;22.90;17.73;;;16.00;80.80;;;;;;5050823;28;20037;-68
2022/06/07 03:43:12;;;;;;;22.00;17.52;;;16.00;80.90;;;;;;5039443;28;20431;-68
2022/06/07 03:45:39;;;;;;;22.80;16.65;;;16.00;80.90;;;;;;5035852;28;20033;-67
2022/06/07 03:48:08;;;;;;;21.88;17.52;;;16.00;80.80;;;;;;5052992;28;20029;-68
2022/06/07 03:50:35;;;;;;;21.17;16.58;;;16.00;80.80;;;;;;5046096;28;20029;-68
2022/06/07 03:53:01;;;;;;;22.05;17.45;;;16.00;80.90;;;;;;5054594;28;20028;-68
2022/06/07 03:55:27;;;;;;;20.73;15.68;;;16.00;81.00;;;;;;5024097;28;20099;-68
2022/06/07 03:58:04;;;;;;;19.17;16.02;;;15.90;80.90;;;;;;5051427;28;20017;-68
2022/06/07 04:00:30;;;;;;;19.80;15.80;;;16.00;81.00;;;;;;5054166;28;20021;-68
2022/06/07 04:02:58;;;;;;;20.90;16.13;;;16.00;81.00;;;;;;5050480;28;20387;-68
2022/06/07 04:05:23;;;;;;;20.05;16.20;;;16.00;80.90;;;;;;5053900;28;20060;-68
2022/06/07 04:10:37;;;;;;;18.17;15.02;;;16.00;80.90;;;;;;5054144;28;20351;-67
2022/06/07 04:13:03;;;;;;;20.45;15.15;;;16.00;80.90;;;;;;5048814;28;20021;-67
2022/06/07 04:15:29;;;;;;;19.25;14.20;;;16.00;81.00;;;;;;5042818;28;20033;-68
2022/06/07 04:17:56;;;;;;;21.23;15.73;;;16.00;80.90;;;;;;5053373;28;20037;-67
2022/06/07 04:20:28;;;;;;;21.23;15.95;;;16.00;80.90;;;;;;5038054;28;20021;-68
2022/06/07 04:22:56;;;;;;;20.60;16.05;;;16.00;80.90;;;;;;5038807;28;20328;-67
2022/06/07 04:25:22;;;;;;;19.83;15.43;;;16.00;80.80;;;;;;5038698;28;20041;-67
2022/06/07 04:27:48;;;;;;;23.38;15.52;;;16.00;80.80;;;;;;5038572;28;20041;-67
2022/06/07 04:30:16;;;;;;;21.45;16.10;;;16.10;80.90;;;;;;5047591;28;20116;-67
2022/06/07 04:32:47;;;;;;;22.48;16.60;;;16.10;80.90;;;;;;5044277;28;20029;-67
2022/06/07 04:35:18;;;;;;;20.73;16.45;;;16.10;80.90;;;;;;5047040;28;20021;-66
2022/06/07 04:37:49;;;;;;;19.40;14.40;;;16.20;80.80;;;;;;5048772;28;20051;-67
2022/06/07 04:40:16;;;;;;;19.52;15.65;;;16.20;80.70;;;;;;5034676;28;20355;-67
2022/06/07 04:42:43;;;;;;;18.20;14.85;;;16.20;80.60;;;;;;5042785;28;20022;-66
2022/06/07 04:45:16;;;;;;;22.55;15.80;;;16.20;80.60;;;;;;5044313;28;20033;-67
2022/06/07 04:47:57;;;;;;;23.42;15.60;;;16.20;80.60;;;;;;5045642;28;20120;-67
2022/06/07 04:50:24;;;;;;;20.92;15.52;;;16.20;80.60;;;;;;5022365;28;20036;-66
2022/06/07 04:52:50;;;;;;;21.13;15.65;;;16.30;80.60;;;;;;5022476;28;20362;-67
2022/06/07 04:55:16;;;;;;;21.50;15.35;;;16.30;80.50;;;;;;5046417;28;20029;-66
2022/06/07 04:57:43;;;;;;;21.08;15.30;;;16.30;80.40;;;;;;5032866;28;20369;-67
2022/06/07 05:00:18;;;;;;;21.58;17.10;;;16.40;80.30;;;;;;5051248;28;20021;-66
2022/06/07 05:02:47;;;;;;;22.30;17.63;;;16.40;80.20;;;;;;5040227;28;20033;-66
2022/06/07 05:05:15;;;;;;;22.83;15.93;;;16.40;80.10;;;;;;5053680;28;20025;-67
2022/06/07 05:07:43;;;;;;;21.02;16.42;;;16.40;80.10;;;;;;5044555;28;20030;-67
2022/06/07 05:10:16;;;;;;;21.60;15.57;;;16.50;80.10;;;;;;5022130;28;20037;-67
2022/06/07 05:12:45;;;;;;;22.58;17.90;;;16.50;80.20;;;;;;5030670;28;20025;-67
2022/06/07 05:15:17;;;;;;;20.95;17.73;;;16.40;80.10;;;;;;5039764;28;20025;-67
2022/06/07 05:17:48;;;;;;;20.97;16.03;;;16.40;80.20;;;;;;5039108;28;20409;-67
2022/06/07 05:20:15;;;;;;;21.08;16.13;;;16.40;80.20;;;;;;5048879;28;20464;-66
2022/06/07 05:22:42;;;;;;;20.65;16.67;;;16.40;80.20;;;;;;5044204;28;20144;-67
2022/06/07 05:25:13;;;;;;;20.33;16.85;;;16.40;80.20;;;;;;5050085;28;20033;-66
2022/06/07 05:27:47;;;;;;;21.40;16.48;;;16.50;80.20;;;;;;5042529;28;20033;-66
2022/06/07 05:30:16;;;;;;;19.42;15.68;;;16.40;80.10;;;;;;5040710;28;20033;-66
2022/06/07 05:32:56;;;;;;;22.48;16.42;;;16.50;80.10;;;;;;5044791;28;20057;-66
2022/06/07 05:35:31;;;;;;;18.55;16.05;;;16.50;80.00;;;;;;5033990;28;20040;-67
2022/06/07 05:38:05;;;;;;;20.85;16.02;;;16.50;79.90;;;;;;5050983;28;20021;-67
2022/06/07 05:40:33;;;;;;;19.48;15.13;;;16.50;79.90;;;;;;5049258;28;20068;-66
2022/06/07 05:43:00;;;;;;;19.33;15.65;;;16.50;79.80;;;;;;5046300;28;20343;-66
2022/06/07 05:45:31;;;;;;;19.52;15.35;;;16.60;79.70;;;;;;5038569;28;20056;-67
2022/06/07 05:48:02;;;;;;;18.90;15.20;;;16.60;79.60;;;;;;5056702;28;20050;-67
2022/06/07 05:50:33;;;;;;;19.52;16.23;;;16.60;79.50;;;;;;5054292;28;20052;-68
2022/06/07 05:53:02;;;;;;;20.38;15.20;;;16.60;79.50;;;;;;5047349;28;20048;-69
2022/06/07 05:55:27;;;;;;;17.73;15.05;;;16.60;79.50;;;;;;5051280;28;20481;-68
2022/06/07 05:57:54;;;;;;;19.10;15.80;;;16.60;79.50;;;;;;5053709;28;20036;-67
2022/06/07 06:00:21;;;;;;;20.95;15.70;;;16.60;79.40;;;;;;5054277;28;20032;-68
2022/06/07 06:02:49;;;;;;;19.98;15.48;;;16.60;79.40;;;;;;5039051;28;20336;-67
2022/06/07 06:05:30;;;;;;;21.40;14.82;;;16.70;79.30;;;;;;5040726;28;20363;-68
2022/06/07 06:10:46;;;;;;;17.73;14.68;;;16.70;79.20;;;;;;5050674;28;20049;-67
2022/06/07 06:13:12;;;;;;;20.65;15.18;;;16.70;79.10;;;;;;5019121;28;20040;-67
2022/06/07 06:15:37;;;;;;;21.17;15.00;;;16.70;79.10;;;;;;5036260;28;20075;-67
2022/06/07 06:18:05;;;;;;;21.63;15.38;;;16.60;79.70;;;;;;5034853;28;20108;-67
2022/06/07 06:20:37;;;;;;;17.92;14.55;;;16.60;79.20;;;;;;5036265;28;20025;-67
2022/06/07 06:23:10;;;;;;;19.35;14.57;;;16.70;79.30;;;;;;5040321;28;20121;-67
2022/06/07 06:25:40;;;;;;;18.40;13.85;;;16.70;79.30;;;;;;5041520;28;20065;-67
2022/06/07 06:28:06;;;;;;;17.20;13.98;;;16.70;79.20;;;;;;5052929;28;20128;-67
2022/06/07 06:30:32;;;;;;;18.65;13.95;;;16.70;79.10;;;;;;5050210;28;20029;-67
2022/06/07 06:33:12;;;;;;;17.45;14.15;;;16.70;79.10;;;;;;5035459;28;20071;-67
2022/06/07 06:35:45;;;;;;;19.20;14.70;;;16.70;79.10;;;;;;5030271;28;20500;-66
2022/06/07 06:38:10;;;;;;;19.85;14.15;;;16.70;79.10;;;;;;5023372;28;22041;-67
2022/06/07 06:40:38;;;;;;;17.23;12.77;;;16.70;79.10;;;;;;5038645;28;20026;-67
2022/06/07 06:43:05;;;;;;;18.60;14.30;;;16.70;79.10;;;;;;5026302;28;20078;-67
2022/06/07 06:45:49;;;;;;;17.95;12.73;;;16.70;79.00;;;;;;5035204;28;20044;-67
2022/06/07 06:48:18;;;;;;;16.90;13.27;;;16.80;78.80;;;;;;5036078;28;20124;-67
2022/06/07 06:50:47;;;;;;;19.15;14.40;;;16.90;78.50;;;;;;5034011;28;20026;-67
2022/06/07 06:53:14;;;;;;;20.58;13.98;;;17.00;78.30;;;;;;5038977;28;20397;-67
2022/06/07 06:55:44;;;;;;;16.42;12.98;;;17.10;78.10;;;;;;5034244;28;20072;-66
2022/06/07 06:58:11;;;;;;;18.60;14.45;;;17.20;77.90;;;;;;5034463;28;20362;-67
2022/06/07 07:00:38;;;;;;;18.13;13.40;;;17.30;77.70;;;;;;5035037;28;20025;-67
2022/06/07 07:03:05;;;;;;;18.17;14.45;;;17.40;77.40;;;;;;5018956;28;20119;-67
2022/06/07 07:05:35;;;;;;;18.98;13.95;;;17.40;77.50;;;;;;5018980;28;20108;-67
2022/06/07 07:08:03;;;;;;;17.10;12.88;;;17.40;77.50;;;;;;5038567;28;20033;-67
2022/06/07 07:10:32;;;;;;;17.88;13.32;;;17.40;77.60;;;;;;5040806;28;20052;-67
2022/06/07 07:12:58;;;;;;;20.80;14.60;;;17.30;77.60;;;;;;5036801;28;20056;-67
2022/06/07 07:15:25;;;;;;;18.33;13.85;;;17.30;77.60;;;;;;5051997;28;20039;-66
2022/06/07 07:17:59;;;;;;;18.10;14.15;;;17.30;77.70;;;;;;5045312;28;20052;-66
2022/06/07 07:20:27;;;;;;;18.75;13.93;;;17.30;78.40;;;;;;5047004;28;20025;-67
2022/06/07 07:22:56;;;;;;;18.73;14.63;;;17.30;77.70;;;;;;5022948;28;20549;-67
2022/06/07 07:25:21;;;;;;;17.48;13.63;;;17.30;77.70;;;;;;5044069;28;20056;-67
2022/06/07 07:27:48;;;;;;;18.70;14.48;;;17.40;77.60;;;;;;5044179;28;20028;-67
2022/06/07 07:30:16;;;;;;;19.88;14.27;;;17.40;77.30;;;;;;5045856;28;20442;-67
2022/06/07 07:32:44;;;;;;;17.45;14.00;;;17.50;77.10;;;;;;5053745;28;20025;-67
2022/06/07 07:35:13;;;;;;;18.88;14.73;;;17.70;76.90;;;;;;5018259;28;20064;-66
2022/06/07 07:37:51;;;;;;;19.10;15.27;;;17.80;76.50;;;;;;5033048;28;20024;-67
2022/06/07 07:40:18;;;;;;;19.67;14.95;;;17.80;76.30;;;;;;5046431;28;20025;-66
2022/06/07 07:42:43;;;;;;;19.50;15.07;;;17.80;76.30;;;;;;5044972;28;20354;-66
2022/06/07 07:45:15;;;;;;;20.50;15.57;;;17.80;76.30;;;;;;5045462;28;20515;-69
2022/06/07 07:47:43;;;;;;;18.23;14.88;;;17.90;76.10;;;;;;5051072;28;20040;-67
2022/06/07 07:50:11;;;;;;;17.77;14.25;;;17.90;76.10;;;;;;5046017;28;20025;-68
2022/06/07 07:52:38;;;;;;;18.58;14.02;;;17.80;76.10;;;;;;5053717;28;20032;-68
2022/06/07 07:55:08;;;;;;;17.85;14.30;;;17.80;75.90;;;;;;5043170;28;20032;-68
2022/06/07 07:57:35;;;;;;;16.95;13.48;;;17.90;75.80;;;;;;5035439;28;20354;-68
2022/06/07 08:00:02;;;;;;;18.98;14.25;;;18.00;75.50;;;;;;5041447;28;20035;-68
2022/06/07 08:02:28;;;;;;;19.95;14.23;;;18.00;75.30;;;;;;5054696;28;20021;-68
2022/06/07 08:05:03;;;;;;;18.67;14.32;;;18.00;75.20;;;;;;5045812;28;20453;-68
2022/06/07 08:07:32;;;;;;;17.23;14.00;;;18.20;75.00;;;;;;5031641;28;20087;-68
2022/06/07 08:10:01;;;;;;;18.17;14.07;;;18.40;74.60;;;;;;5040501;28;20045;-68
2022/06/07 08:12:28;;;;;;;17.35;13.65;;;18.30;74.20;;;;;;5037160;28;20029;-66
2022/06/07 08:14:54;;;;;;;18.50;13.48;;;18.30;74.30;;;;;;5041732;28;20374;-67
2022/06/07 08:17:20;;;;;;;18.27;14.13;;;18.20;74.50;;;;;;5017850;28;20039;-66
2022/06/07 08:19:46;;;;;;;14.98;12.85;;;18.20;74.70;;;;;;5039653;28;20115;-67
2022/06/07 08:22:12;;;;;;;15.40;12.98;;;18.20;74.70;;;;;;5034396;28;20026;-67
2022/06/07 08:24:39;;;;;;;14.00;11.82;;;18.20;74.70;;;;;;5042878;28;20037;-67
2022/06/07 08:27:05;;;;;;;15.60;11.90;;;18.20;74.60;;;;;;5033162;28;20094;-67
2022/06/07 08:29:31;;;;;;;14.27;11.38;;;18.20;74.50;;;;;;5052375;28;20442;-67
2022/06/07 08:31:56;;;;;;;15.90;11.18;;;18.30;74.30;;;;;;5046996;28;20033;-65
2022/06/07 08:39:50;;;;;;;13.75;10.32;;;18.20;73.80;;;;;;5044307;28;20048;-64
2022/06/07 08:42:26;;;;;;;13.40;9.57;;;18.10;73.80;;;;;;5027399;28;20025;-64
2022/06/07 08:45:02;;;;;;;14.75;10.95;;;18.20;73.70;;;;;;5046276;28;20064;-64
2022/06/07 08:47:41;;;;;;;14.43;10.20;;;18.50;73.00;;;;;;5043209;28;20437;-64
2022/06/07 08:50:30;;;;;;;14.10;9.82;;;18.60;72.40;;;;;;5044735;28;20380;-65
2022/06/07 08:53:01;;;;;;;14.15;10.27;;;18.70;72.30;;;;;;5040901;28;20112;-64
2022/06/07 08:55:48;;;;;;;12.30;9.40;;;18.70;72.60;;;;;;5040302;28;20029;-65
2022/06/07 08:58:18;;;;;;;13.05;9.88;;;18.60;72.40;;;;;;5051699;28;20100;-65
2022/06/07 09:00:57;;;;;;;11.80;8.40;;;18.60;72.30;;;;;;5046307;28;20057;-65
2022/06/07 09:03:31;;;;;;;11.57;8.40;;;18.60;72.10;;;;;;5049346;28;20025;-64
2022/06/07 09:06:00;;;;;;;12.38;8.35;;;18.60;72.20;;;;;;5042139;28;20026;-64
2022/06/07 09:08:45;;;;;;;10.93;8.02;;;18.60;72.20;;;;;;5041558;28;20060;-66
2022/06/07 09:14:05;;;;;;;15.38;10.60;;;18.50;72.20;;;;;;5051290;28;20374;-68
2022/06/07 09:16:43;;;;;;;16.63;12.07;;;18.60;72.40;;;;;;5048623;28;20021;-68
2022/06/07 09:19:17;;;;;;;17.25;12.50;;;18.60;72.40;;;;;;5057890;28;20028;-68
2022/06/07 09:21:45;;;;;;;17.50;13.48;;;18.60;72.30;;;;;;5037230;28;20098;-67
2022/06/07 09:24:25;;;;;;;14.93;11.82;;;18.60;72.20;;;;;;5024573;28;20021;-66
2022/06/07 09:26:51;;;;;;;16.20;12.32;;;18.60;72.30;;;;;;5041872;28;20040;-66
2022/06/07 09:29:21;;;;;;;17.13;11.95;;;18.50;72.50;;;;;;5038863;28;20030;-66
2022/06/07 09:31:49;;;;;;;17.83;12.55;;;18.50;72.70;;;;;;5040005;28;20094;-67
2022/06/07 09:34:33;;;;;;;18.20;14.10;;;18.40;73.00;;;;;;5042576;28;20032;-67
2022/06/07 09:37:05;;;;;;;17.25;14.00;;;18.40;73.20;;;;;;5052211;28;20048;-68
2022/06/07 09:39:39;;;;;;;18.38;13.68;;;18.30;73.30;;;;;;5052477;28;20028;-67
2022/06/07 09:42:29;;;;;;;20.25;14.20;;;18.20;73.50;;;;;;5040388;28;20037;-66
2022/06/07 09:45:12;;;;;;;18.23;14.25;;;18.20;73.60;;;;;;5047318;28;20044;-66
2022/06/07 09:47:38;;;;;;;18.88;14.70;;;18.20;73.70;;;;;;5041342;28;20149;-66
2022/06/07 09:50:21;;;;;;;18.52;14.73;;;18.20;73.60;;;;;;5050723;28;20068;-66
2022/06/07 09:52:54;;;;;;;17.88;13.95;;;18.20;73.60;;;;;;5051925;28;20361;-66
2022/06/07 09:55:41;;;;;;;19.70;15.35;;;18.20;73.80;;;;;;5058223;28;20032;-66
2022/06/07 09:58:46;;;;;;;18.48;14.98;;;18.20;73.60;;;;;;5048246;28;20028;-66
2022/06/07 10:01:23;;;;;;;16.10;13.65;;;18.20;73.80;;;;;;5048279;28;20336;-66
2022/06/07 10:04:14;;;;;;;20.90;15.90;;;18.20;73.90;;;;;;5022774;28;20037;-66
2022/06/07 10:07:01;;;;;;;19.92;13.43;;;18.20;73.80;;;;;;5039580;28;20036;-66
2022/06/07 10:09:55;;;;;;;16.05;12.85;;;18.30;73.70;;;;;;5054195;28;20565;-67
2022/06/07 10:12:44;;;;;;;18.15;13.73;;;18.40;73.60;;;;;;5049986;28;20466;-67
2022/06/07 10:15:15;;;;;;;17.33;13.63;;;18.50;73.30;;;;;;5057516;28;20501;-67
2022/06/07 10:17:53;;;;;;;16.92;14.52;;;18.50;73.20;;;;;;5050545;28;20121;-66
2022/06/07 10:20:28;;;;;;;16.95;13.43;;;18.50;73.30;;;;;;5030798;28;20026;-66
2022/06/07 10:23:23;;;;;;;19.17;14.07;;;18.50;73.40;;;;;;5041815;28;20025;-63
2022/06/07 10:26:07;;;;;;;17.08;12.90;;;18.70;73.30;;;;;;5057027;28;20021;-65
2022/06/07 10:28:39;;;;;;;18.00;13.07;;;18.80;73.00;;;;;;5045228;28;20104;-65
2022/06/07 10:31:32;;;;;;;19.65;14.02;;;18.90;72.70;;;;;;5047421;28;20127;-65
2022/06/07 10:34:03;;;;;;;17.55;14.43;;;19.00;72.30;;;;;;5047523;28;20028;-67
2022/06/07 10:36:54;;;;;;;16.85;13.23;;;19.20;72.00;;;;;;5038810;28;20037;-66
2022/06/07 10:39:24;;;;;;;15.93;12.63;;;19.20;71.80;;;;;;5037236;28;20044;-66
2022/06/07 10:42:04;;;;;;;17.05;12.48;;;19.20;71.70;;;;;;5048891;28;20354;-65
2022/06/07 10:44:44;;;;;;;16.00;12.65;;;19.20;71.70;;;;;;5038183;28;20041;-67
2022/06/07 10:47:34;;;;;;;15.95;12.60;;;19.20;71.70;;;;;;5040504;28;20037;-67
2022/06/07 10:50:15;;;;;;;14.60;11.52;;;19.20;71.70;;;;;;5050031;28;20033;-67
2022/06/07 10:52:48;;;;;;;14.80;11.00;;;19.20;71.70;;;;;;5054526;28;20052;-66
2022/06/07 10:55:28;;;;;;;15.65;12.35;;;19.10;71.70;;;;;;5046298;28;20366;-66
2022/06/07 10:57:57;;;;;;;15.25;12.55;;;19.10;71.80;;;;;;5057776;28;20537;-66
2022/06/07 11:00:41;;;;;;;17.20;12.23;;;19.00;72.10;;;;;;5065423;28;20033;-66
2022/06/07 11:03:26;;;;;;;15.13;11.23;;;18.90;72.40;;;;;;5050990;28;20033;-67
2022/06/07 11:11:59;;;;;;;13.98;10.25;;;18.80;72.60;;;;;;5046193;28;20048;-66
2022/06/07 11:15:04;;;;;;;14.90;11.60;;;18.80;72.60;;;;;;5053814;28;20461;-67
2022/06/07 11:17:41;;;;;;;14.38;11.13;;;18.80;72.60;;;;;;5037326;28;20072;-66
2022/06/07 11:20:30;;;;;;;16.10;11.73;;;18.70;72.80;;;;;;5052767;28;20068;-67
2022/06/07 11:23:13;;;;;;;14.15;11.00;;;18.70;73.00;;;;;;5049270;28;20414;-66
2022/06/07 11:25:43;;;;;;;16.63;12.13;;;18.70;73.30;;;;;;5043842;28;20033;-65
2022/06/07 11:28:26;;;;;;;19.15;12.95;;;18.70;73.30;;;;;;5037885;28;20036;-65
2022/06/07 11:30:53;;;;;;;16.17;13.05;;;18.70;73.30;;;;;;5038149;28;20464;-65
2022/06/07 11:33:41;;;;;;;15.32;12.52;;;18.90;73.10;;;;;;5054616;28;20037;-64
2022/06/07 11:36:12;;;;;;;15.25;11.77;;;19.00;73.00;;;;;;5048719;28;20063;-64
2022/06/07 11:38:56;;;;;;;17.67;12.88;;;19.20;72.70;;;;;;5046987;28;20108;-65
2022/06/07 11:41:36;;;;;;;17.40;13.05;;;19.70;71.90;;;;;;5044671;28;20082;-64
2022/06/07 11:44:04;;;;;;;15.65;13.25;;;20.10;70.90;;;;;;5047783;28;20028;-64
2022/06/07 11:46:32;;;;;;;16.02;13.07;;;20.30;70.20;;;;;;5046996;28;20021;-65
2022/06/07 11:49:24;;;;;;;16.10;13.55;;;20.40;69.80;;;;;;5048412;28;20103;-64
2022/06/07 11:52:08;;;;;;;14.82;11.73;;;20.50;69.50;;;;;;5044255;28;20029;-65
2022/06/07 11:54:45;;;;;;;14.05;11.68;;;20.70;69.30;;;;;;5050926;28;20031;-65
2022/06/07 11:57:29;;;;;;;13.55;11.30;;;20.70;69.00;;;;;;5050153;28;20026;-66
2022/06/07 12:00:38;;;;;;;12.95;10.68;;;20.80;68.70;;;;;;5051530;28;20037;-66
2022/06/07 12:03:08;;;;;;;13.40;9.75;;;20.90;68.40;;;;;;5044353;28;20024;-64
2022/06/07 12:05:42;;;;;;;15.13;10.73;;;20.90;68.30;;;;;;5043009;28;20044;-64
2022/06/07 12:08:26;;;;;;;16.52;11.48;;;20.90;68.10;;;;;;5038146;28;20079;-65
2022/06/07 12:11:04;;;;;;;16.10;12.38;;;20.90;68.00;;;;;;5033588;28;20152;-64
2022/06/07 12:13:51;;;;;;;15.63;11.90;;;21.00;67.80;;;;;;5038135;28;20108;-64
2022/06/07 12:16:27;;;;;;;14.73;11.98;;;21.10;67.20;;;;;;5044671;28;20079;-64
2022/06/07 12:18:55;;;;;;;16.02;11.68;;;21.10;67.30;;;;;;5053404;28;20025;-64
2022/06/07 12:21:22;;;;;;;15.02;11.90;;;21.10;67.30;;;;;;5035070;28;20024;-65
2022/06/07 12:24:00;;;;;;;14.85;12.38;;;21.20;67.20;;;;;;5038460;28;20092;-64
2022/06/07 12:26:34;;;;;;;14.43;11.88;;;21.20;66.50;;;;;;5036167;28;20071;-64
2022/06/07 12:29:11;;;;;;;13.20;10.18;;;21.10;66.40;;;;;;5035993;28;20029;-64
2022/06/07 12:31:53;;;;;;;13.75;8.63;;;21.10;66.50;;;;;;5046056;28;20160;-64
2022/06/07 12:34:25;;;;;;;14.88;9.18;;;21.20;66.60;;;;;;5055191;28;20075;-64
2022/06/07 12:36:58;;;;;;;11.98;8.43;;;21.30;66.10;;;;;;5056832;28;20059;-64
2022/06/07 12:39:25;;;;;;;12.25;9.52;;;21.40;65.80;;;;;;5057520;28;20151;-64
2022/06/07 12:41:58;;;;;;;13.07;8.77;;;21.40;65.60;;;;;;5048761;28;20094;-65
2022/06/07 12:44:57;;;;;;;12.02;9.40;;;21.30;65.70;;;;;;5057522;28;20066;-64
2022/06/07 12:47:32;;;;;;;13.80;8.60;;;21.30;65.70;;;;;;5045627;28;20040;-64
2022/06/07 12:49:58;;;;;;;12.52;8.65;;;21.20;66.00;;;;;;5057246;28;20029;-64
2022/06/07 12:52:29;;;;;;;10.88;9.00;;;21.10;65.90;;;;;;5057214;28;20033;-64
2022/06/07 12:55:11;;;;;;;12.65;9.02;;;21.10;65.80;;;;;;5056323;28;20040;-64
2022/06/07 12:57:46;;;;;;;12.02;8.57;;;21.10;65.60;;;;;;5056011;28;20112;-64
2022/06/07 13:00:16;;;;;;;11.63;8.57;;;21.10;65.50;;;;;;5057627;28;20035;-64
2022/06/07 13:02:48;;;;;;;12.35;9.05;;;21.10;65.50;;;;;;5057151;28;20033;-64
2022/06/07 13:05:25;;;;;;;12.60;9.05;;;21.20;65.50;;;;;;5055953;28;20032;-64
2022/06/07 13:07:54;;;;;;;11.82;7.97;;;21.30;65.40;;;;;;5043091;28;20127;-64
2022/06/07 13:10:27;;;;;;;14.15;8.93;;;21.40;65.10;;;;;;5043472;28;20052;-64
2022/06/07 13:13:03;;;;;;;11.25;8.05;;;21.40;64.70;;;;;;5044736;28;20414;-64
2022/06/07 13:15:35;;;;;;;11.77;8.27;;;21.50;64.60;;;;;;5043231;28;20052;-64
2022/06/07 13:18:23;;;;;;;11.00;7.72;;;21.50;64.30;;;;;;5048562;28;20033;-64
2022/06/07 13:21:02;;;;;;;12.75;8.40;;;21.50;64.20;;;;;;5045017;28;20075;-65